Time;durP1;ratioP1;P1;durP2;ratioP2;P2;SDS_P1;SDS_P2;PMS_P1;PMS_P2;Temp;Humidity;BMP_temperature;BMP_pressure;BME280_temperature;BME280_humidity;BME280_pressure;Samples;Min_cycle;Max_cycle;Signal;HPM_P1;HPM_P2
2022/04/13 00:01:20;;;;;;;10.57;7.85;;;12.70;89.40;;;;;;5023810;28;20117;-71
2022/04/13 00:03:46;;;;;;;9.52;7.65;;;12.70;90.00;;;;;;5008551;28;20049;-71
2022/04/13 00:06:13;;;;;;;12.88;7.78;;;12.70;90.20;;;;;;5024330;28;20924;-71
2022/04/13 00:08:40;;;;;;;12.98;7.75;;;12.70;90.40;;;;;;5022605;28;20132;-71
2022/04/13 00:11:05;;;;;;;12.13;7.68;;;12.60;90.50;;;;;;5007397;28;20041;-72
2022/04/13 00:13:31;;;;;;;8.60;7.60;;;12.50;90.70;;;;;;5024908;28;20035;-72
2022/04/13 00:15:57;;;;;;;10.68;7.20;;;12.50;90.90;;;;;;5024063;28;20045;-71
2022/04/13 00:18:22;;;;;;;8.70;7.47;;;12.50;91.10;;;;;;5024928;28;20049;-71
2022/04/13 00:20:48;;;;;;;10.18;7.53;;;12.50;91.30;;;;;;5023953;28;20528;-71
2022/04/13 00:23:14;;;;;;;9.52;7.82;;;12.40;91.40;;;;;;5007536;28;20046;-71
2022/04/13 00:25:41;;;;;;;12.85;7.90;;;12.30;91.60;;;;;;5024785;28;20140;-71
2022/04/13 00:28:09;;;;;;;9.65;7.78;;;12.30;91.80;;;;;;5022881;28;20056;-71
2022/04/13 00:30:38;;;;;;;10.55;8.20;;;12.30;92.00;;;;;;5023948;28;20869;-71
2022/04/13 00:33:04;;;;;;;14.07;8.38;;;12.20;92.10;;;;;;5007136;28;20572;-71
2022/04/13 00:35:30;;;;;;;10.43;7.95;;;12.20;92.30;;;;;;5025233;28;20040;-71
2022/04/13 00:37:57;;;;;;;10.77;7.88;;;12.10;92.50;;;;;;5008470;28;20073;-71
2022/04/13 00:40:23;;;;;;;10.45;8.38;;;12.20;92.70;;;;;;5023948;28;20511;-71
2022/04/13 00:42:49;;;;;;;11.77;8.25;;;12.10;92.80;;;;;;5022882;28;20041;-71
2022/04/13 00:45:15;;;;;;;10.88;8.32;;;12.10;93.00;;;;;;5024337;28;20547;-71
2022/04/13 00:47:41;;;;;;;9.77;8.13;;;12.00;93.20;;;;;;5027955;28;20067;-71
2022/04/13 00:50:08;;;;;;;10.00;8.20;;;12.10;93.50;;;;;;5012247;28;20681;-71
2022/04/13 00:52:40;;;;;;;9.35;8.45;;;12.10;93.70;;;;;;5010811;28;20056;-71
2022/04/13 00:55:10;;;;;;;9.95;8.40;;;12.00;93.80;;;;;;5028005;28;20042;-71
2022/04/13 00:57:37;;;;;;;10.45;8.48;;;11.90;93.90;;;;;;5026740;28;20045;-71
2022/04/13 01:00:10;;;;;;;10.00;8.38;;;12.00;94.00;;;;;;5027034;28;20445;-71
2022/04/13 01:02:36;;;;;;;9.68;8.30;;;12.00;94.20;;;;;;5026356;28;20110;-70
2022/04/13 01:05:05;;;;;;;11.77;8.23;;;12.00;94.40;;;;;;5044770;28;20488;-70
2022/04/13 01:07:31;;;;;;;10.95;8.30;;;11.90;94.80;;;;;;5027534;28;20560;-70
2022/04/13 01:10:00;;;;;;;16.42;8.63;;;11.90;94.60;;;;;;5010554;28;20053;-71
2022/04/13 01:12:26;;;;;;;13.98;8.88;;;11.90;94.80;;;;;;5009931;28;20056;-71
2022/04/13 01:14:53;;;;;;;10.68;8.35;;;11.90;94.80;;;;;;5027879;28;20496;-71
2022/04/13 01:17:18;;;;;;;9.10;7.97;;;11.90;94.90;;;;;;5010624;28;20541;-71
2022/04/13 01:19:46;;;;;;;9.23;7.88;;;11.90;95.00;;;;;;5043282;28;20211;-71
2022/04/13 01:22:22;;;;;;;9.85;8.85;;;11.80;95.10;;;;;;5028904;28;20195;-71
2022/04/13 01:24:48;;;;;;;12.73;9.15;;;11.80;95.30;;;;;;5023637;28;20044;-71
2022/04/13 01:27:14;;;;;;;11.82;8.52;;;11.70;95.60;;;;;;5027700;28;20077;-71
2022/04/13 01:29:42;;;;;;;10.20;8.93;;;11.70;95.70;;;;;;5027448;28;20508;-71
2022/04/13 01:32:10;;;;;;;12.55;8.32;;;11.70;95.80;;;;;;5027044;28;20493;-71
2022/04/13 01:34:36;;;;;;;11.85;8.05;;;11.70;96.10;;;;;;5027703;28;20111;-71
2022/04/13 01:37:02;;;;;;;10.35;8.75;;;11.70;96.30;;;;;;5027418;28;20041;-71
2022/04/13 01:39:29;;;;;;;11.15;8.65;;;11.60;96.70;;;;;;5026076;28;20045;-71
2022/04/13 01:41:55;;;;;;;9.68;8.32;;;11.60;96.60;;;;;;5027504;28;20091;-71
2022/04/13 01:44:21;;;;;;;10.52;7.93;;;11.60;96.70;;;;;;5027300;28;20041;-71
2022/04/13 01:46:47;;;;;;;10.30;8.00;;;11.60;96.70;;;;;;5026837;28;20056;-71
2022/04/13 01:49:12;;;;;;;9.75;8.00;;;11.50;96.80;;;;;;5026081;28;20370;-71
2022/04/13 01:51:38;;;;;;;12.57;9.32;;;11.50;96.80;;;;;;5026869;28;20132;-71
2022/04/13 01:54:04;;;;;;;10.30;8.50;;;11.40;96.90;;;;;;5026306;28;20045;-71
2022/04/13 01:56:29;;;;;;;12.75;9.27;;;11.40;97.00;;;;;;5011682;28;20050;-71
2022/04/13 01:58:55;;;;;;;9.07;7.82;;;11.40;97.10;;;;;;5028208;28;20037;-71
2022/04/13 02:01:21;;;;;;;11.98;8.00;;;11.40;97.20;;;;;;5025755;28;20042;-71
2022/04/13 02:03:46;;;;;;;11.20;8.10;;;11.40;97.30;;;;;;5028356;28;20041;-71
2022/04/13 02:06:14;;;;;;;10.13;7.70;;;11.40;97.50;;;;;;5010971;28;20045;-71
2022/04/13 02:08:40;;;;;;;9.32;7.20;;;11.30;97.50;;;;;;5025581;28;20072;-71
2022/04/13 02:11:06;;;;;;;11.40;8.48;;;11.30;97.60;;;;;;5027155;28;21602;-71
2022/04/13 02:13:31;;;;;;;11.07;8.82;;;11.20;97.70;;;;;;5028130;28;20472;-71
2022/04/13 02:15:57;;;;;;;12.88;8.68;;;11.20;97.90;;;;;;5025655;28;20038;-71
2022/04/13 02:18:23;;;;;;;10.15;9.05;;;11.20;98.10;;;;;;5008929;28;20166;-71
2022/04/13 02:20:48;;;;;;;10.32;8.35;;;11.20;98.20;;;;;;5011436;28;20052;-71
2022/04/13 02:23:14;;;;;;;10.82;9.32;;;11.20;98.30;;;;;;5024431;28;20057;-71
2022/04/13 02:25:40;;;;;;;11.98;8.55;;;11.20;98.40;;;;;;5025751;28;20042;-71
2022/04/13 02:28:06;;;;;;;11.70;9.18;;;11.20;98.60;;;;;;5010983;28;20038;-71
2022/04/13 02:30:33;;;;;;;12.48;9.32;;;11.20;98.70;;;;;;5025842;28;20494;-71
2022/04/13 02:32:59;;;;;;;14.27;9.00;;;11.20;99.00;;;;;;5026646;28;20033;-71
2022/04/13 02:35:25;;;;;;;10.30;8.82;;;11.20;99.30;;;;;;5024681;28;20732;-71
2022/04/13 02:37:50;;;;;;;11.82;8.80;;;11.10;99.50;;;;;;5026284;28;20386;-71
2022/04/13 02:40:16;;;;;;;11.48;9.63;;;11.10;99.70;;;;;;5025094;28;20052;-71
2022/04/13 02:42:42;;;;;;;11.05;8.40;;;11.10;99.90;;;;;;5027094;28;20045;-71
2022/04/13 02:45:08;;;;;;;12.07;9.35;;;11.10;99.90;;;;;;5026046;28;20042;-71
2022/04/13 02:47:35;;;;;;;12.98;9.30;;;11.10;99.90;;;;;;5025024;28;20060;-71
2022/04/13 02:50:02;;;;;;;12.02;9.35;;;11.10;99.90;;;;;;5024801;28;20065;-71
2022/04/13 02:52:28;;;;;;;13.35;10.00;;;11.10;99.90;;;;;;5025636;28;20029;-71
2022/04/13 02:54:57;;;;;;;13.10;9.52;;;11.00;99.90;;;;;;5026293;28;20366;-71
2022/04/13 02:57:23;;;;;;;15.80;9.70;;;11.10;99.90;;;;;;5025420;28;20083;-71
2022/04/13 02:59:49;;;;;;;10.85;9.75;;;11.10;99.90;;;;;;5025393;28;20428;-71
2022/04/13 03:02:19;;;;;;;14.00;10.35;;;11.00;99.90;;;;;;5025670;28;20057;-71
2022/04/13 03:04:46;;;;;;;14.68;10.02;;;11.00;99.90;;;;;;5025065;28;20365;-71
2022/04/13 03:07:14;;;;;;;13.05;9.98;;;11.00;99.90;;;;;;5024859;28;20132;-71
2022/04/13 03:09:40;;;;;;;11.88;9.95;;;10.90;99.90;;;;;;5025339;28;20046;-71
2022/04/13 03:12:07;;;;;;;12.07;9.60;;;10.90;99.90;;;;;;5026248;28;20065;-71
2022/04/13 03:14:34;;;;;;;12.20;9.68;;;10.80;99.90;;;;;;5026166;28;20045;-71
2022/04/13 03:17:00;;;;;;;12.48;9.82;;;10.80;99.90;;;;;;5004270;28;20393;-71
2022/04/13 03:19:26;;;;;;;14.95;10.32;;;10.80;99.90;;;;;;5025155;28;20041;-71
2022/04/13 03:21:54;;;;;;;12.00;9.55;;;10.60;99.90;;;;;;5026276;28;20044;-71
2022/04/13 03:24:21;;;;;;;17.08;11.20;;;10.70;99.90;;;;;;5026002;28;20041;-71
2022/04/13 03:26:48;;;;;;;17.08;11.65;;;10.70;99.90;;;;;;5025669;28;20032;-71
2022/04/13 03:29:14;;;;;;;16.17;11.63;;;10.70;99.90;;;;;;5025719;28;20053;-71
2022/04/13 03:31:39;;;;;;;17.02;11.23;;;10.60;99.90;;;;;;5006583;28;20577;-71
2022/04/13 03:34:05;;;;;;;16.33;11.32;;;10.60;99.90;;;;;;5023674;28;20159;-71
2022/04/13 03:36:32;;;;;;;15.75;11.23;;;10.60;99.90;;;;;;5025273;28;20037;-71
2022/04/13 03:38:57;;;;;;;15.40;10.95;;;10.60;99.90;;;;;;5026557;28;20029;-71
2022/04/13 03:41:23;;;;;;;15.43;10.52;;;10.70;99.90;;;;;;5026080;28;20370;-71
2022/04/13 03:43:49;;;;;;;14.60;11.15;;;10.60;99.90;;;;;;5025145;28;20063;-71
2022/04/13 03:46:15;;;;;;;15.65;11.25;;;10.60;99.90;;;;;;5020722;28;20676;-71
2022/04/13 03:48:40;;;;;;;14.52;10.98;;;10.60;99.90;;;;;;5025473;28;20041;-70
2022/04/13 03:51:06;;;;;;;15.88;11.98;;;10.60;99.90;;;;;;5028482;28;20161;-71
2022/04/13 03:53:32;;;;;;;14.95;11.45;;;10.60;99.90;;;;;;5029261;28;20649;-71
2022/04/13 03:55:57;;;;;;;17.60;12.43;;;10.60;99.90;;;;;;5028551;28;20377;-71
2022/04/13 03:58:23;;;;;;;16.27;11.38;;;10.60;99.90;;;;;;5027454;28;20347;-71
2022/04/13 04:00:49;;;;;;;17.58;12.25;;;10.70;99.90;;;;;;5026973;28;20045;-71
2022/04/13 04:03:14;;;;;;;13.40;10.38;;;10.70;99.90;;;;;;5028848;28;20091;-71
2022/04/13 04:05:41;;;;;;;18.48;12.18;;;10.70;99.90;;;;;;5028681;28;20539;-71
2022/04/13 04:08:06;;;;;;;15.90;12.07;;;10.70;99.90;;;;;;5027594;28;20080;-71
2022/04/13 04:10:32;;;;;;;12.75;10.63;;;10.70;99.90;;;;;;5029190;28;20076;-71
2022/04/13 04:12:58;;;;;;;15.85;11.98;;;10.70;99.90;;;;;;5028926;28;20116;-71
2022/04/13 04:15:24;;;;;;;16.60;10.50;;;10.70;99.90;;;;;;5027867;28;20576;-71
2022/04/13 04:17:50;;;;;;;15.10;10.90;;;10.60;99.90;;;;;;5027490;28;20049;-72
2022/04/13 04:20:16;;;;;;;15.75;11.07;;;10.60;99.90;;;;;;5028445;28;20494;-71
2022/04/13 04:22:41;;;;;;;16.17;11.32;;;10.60;99.90;;;;;;5032054;28;20057;-71
2022/04/13 04:25:08;;;;;;;14.90;10.90;;;10.60;99.90;;;;;;5033232;28;20107;-71
2022/04/13 04:27:34;;;;;;;17.75;10.27;;;10.50;99.90;;;;;;5029185;28;20049;-71
2022/04/13 04:30:00;;;;;;;19.50;11.82;;;10.50;99.90;;;;;;5032681;28;20053;-71
2022/04/13 04:32:26;;;;;;;15.82;11.93;;;10.40;99.90;;;;;;5032249;28;20135;-71
2022/04/13 04:34:52;;;;;;;17.10;11.52;;;10.40;99.90;;;;;;5032846;28;20128;-71
2022/04/13 04:37:18;;;;;;;16.60;12.23;;;10.40;99.90;;;;;;5032093;28;20539;-71
2022/04/13 04:39:44;;;;;;;15.95;12.30;;;10.40;99.90;;;;;;5032368;28;20049;-71
2022/04/13 04:42:10;;;;;;;19.58;12.85;;;10.40;99.90;;;;;;5031893;28;20128;-71
2022/04/13 04:44:36;;;;;;;17.52;11.95;;;10.40;99.90;;;;;;5032432;28;20144;-71
2022/04/13 04:47:01;;;;;;;16.48;11.95;;;10.30;99.90;;;;;;5031546;28;20100;-71
2022/04/13 04:49:27;;;;;;;17.15;13.15;;;10.40;99.90;;;;;;5032023;28;20084;-71
2022/04/13 04:51:53;;;;;;;15.45;12.80;;;10.40;99.90;;;;;;5032553;28;20042;-71
2022/04/13 04:54:18;;;;;;;17.48;13.10;;;10.40;99.90;;;;;;5032184;28;20037;-71
2022/04/13 04:56:44;;;;;;;18.63;12.57;;;10.40;99.90;;;;;;5029021;28;20040;-71
2022/04/13 04:59:10;;;;;;;17.60;13.40;;;10.40;99.90;;;;;;5028281;28;20385;-71
2022/04/13 05:01:35;;;;;;;17.15;13.25;;;10.30;99.90;;;;;;5031819;28;20107;-71
2022/04/13 05:04:01;;;;;;;20.13;13.73;;;10.40;99.90;;;;;;5032833;28;20045;-71
2022/04/13 05:06:29;;;;;;;14.85;13.32;;;10.40;99.90;;;;;;5032292;28;20029;-71
2022/04/13 05:08:55;;;;;;;17.55;14.98;;;10.40;99.90;;;;;;5020725;28;20041;-71
2022/04/13 05:11:22;;;;;;;19.02;14.20;;;10.50;99.90;;;;;;5023973;28;20166;-71
2022/04/13 05:13:48;;;;;;;17.83;14.07;;;10.50;99.90;;;;;;5030662;28;20056;-71
2022/04/13 05:16:15;;;;;;;20.23;15.27;;;10.50;99.90;;;;;;5030554;28;20029;-71
2022/04/13 05:18:41;;;;;;;22.42;14.95;;;10.60;99.90;;;;;;5031959;28;20057;-71
2022/04/13 05:21:08;;;;;;;20.45;14.68;;;10.60;99.90;;;;;;5031687;28;20060;-71
2022/04/13 05:23:35;;;;;;;27.60;16.95;;;10.60;99.90;;;;;;5031484;28;20643;-71
2022/04/13 05:26:00;;;;;;;23.17;18.73;;;10.70;99.90;;;;;;5031581;28;20045;-71
2022/04/13 05:28:26;;;;;;;19.08;16.52;;;10.70;99.90;;;;;;5029673;28;20045;-71
2022/04/13 05:30:52;;;;;;;22.65;17.13;;;10.70;99.90;;;;;;5028983;28;20053;-71
2022/04/13 05:33:17;;;;;;;20.65;15.38;;;10.70;99.90;;;;;;5031390;28;20044;-71
2022/04/13 05:35:45;;;;;;;19.52;15.35;;;10.80;99.90;;;;;;5031386;28;20139;-71
2022/04/13 05:38:11;;;;;;;24.10;16.67;;;10.80;99.90;;;;;;5028910;28;20657;-71
2022/04/13 05:40:36;;;;;;;20.73;15.90;;;10.90;99.90;;;;;;5031073;28;20045;-71
2022/04/13 05:43:02;;;;;;;21.55;16.75;;;10.90;99.90;;;;;;5030161;28;20057;-71
2022/04/13 05:45:28;;;;;;;23.90;16.15;;;10.90;99.90;;;;;;5030406;28;20041;-71
2022/04/13 05:47:54;;;;;;;20.58;15.18;;;11.00;99.90;;;;;;5030559;28;20469;-70
2022/04/13 05:50:20;;;;;;;20.98;16.00;;;11.10;99.90;;;;;;5028686;28;20103;-70
2022/04/13 05:52:45;;;;;;;18.90;15.85;;;11.10;99.90;;;;;;5030673;28;20050;-71
2022/04/13 05:55:11;;;;;;;23.95;15.07;;;11.10;99.90;;;;;;5032025;28;20099;-70
2022/04/13 05:57:37;;;;;;;21.08;15.98;;;11.20;99.90;;;;;;5030807;28;20524;-71
2022/04/13 06:00:10;;;;;;;26.63;16.67;;;11.30;99.90;;;;;;5030720;28;20132;-69
2022/04/13 06:02:36;;;;;;;25.23;17.38;;;11.30;99.90;;;;;;5025480;28;20111;-71
2022/04/13 06:05:03;;;;;;;24.40;16.33;;;11.40;99.90;;;;;;5031166;28;20053;-71
2022/04/13 06:07:29;;;;;;;22.90;17.10;;;11.50;99.90;;;;;;5029036;28;20048;-71
2022/04/13 06:09:54;;;;;;;20.60;17.17;;;11.60;99.90;;;;;;5030395;28;20132;-70
2022/04/13 06:12:23;;;;;;;21.38;16.55;;;11.70;99.90;;;;;;5030608;28;20053;-69
2022/04/13 06:14:50;;;;;;;23.70;17.63;;;11.80;99.90;;;;;;5031351;28;20621;-70
2022/04/13 06:17:16;;;;;;;23.05;17.05;;;12.00;99.90;;;;;;5025265;28;20068;-70
2022/04/13 06:19:42;;;;;;;22.77;17.75;;;12.10;99.90;;;;;;5029515;28;20050;-70
2022/04/13 06:22:08;;;;;;;22.80;17.30;;;12.30;99.90;;;;;;5029814;28;20069;-70
2022/04/13 06:24:34;;;;;;;25.23;17.75;;;12.40;99.90;;;;;;5030148;28;20085;-70
2022/04/13 06:27:00;;;;;;;20.15;17.17;;;12.60;99.90;;;;;;5029637;28;20045;-70
2022/04/13 06:29:25;;;;;;;23.35;16.88;;;12.80;99.90;;;;;;5029703;28;20497;-70
2022/04/13 06:31:51;;;;;;;23.40;16.30;;;13.00;99.90;;;;;;5028678;28;20385;-70
2022/04/13 06:34:17;;;;;;;23.20;15.43;;;13.10;99.90;;;;;;5025870;28;20136;-70
2022/04/13 06:36:43;;;;;;;19.50;15.25;;;13.20;99.90;;;;;;5028800;28;20057;-70
2022/04/13 06:39:08;;;;;;;21.40;14.77;;;13.30;99.90;;;;;;5030422;28;20148;-70
2022/04/13 06:41:34;;;;;;;23.33;15.35;;;13.40;99.90;;;;;;5030233;28;20136;-70
2022/04/13 06:44:00;;;;;;;21.17;14.15;;;13.50;99.90;;;;;;5029076;28;20048;-70
2022/04/13 06:46:25;;;;;;;20.02;14.30;;;13.60;99.90;;;;;;5029606;28;20136;-70
2022/04/13 06:48:51;;;;;;;20.00;13.38;;;13.70;99.90;;;;;;5028975;28;20045;-70
2022/04/13 06:51:17;;;;;;;21.52;13.00;;;13.80;99.90;;;;;;5024894;28;20054;-71
2022/04/13 06:53:43;;;;;;;17.08;13.10;;;13.90;99.90;;;;;;5031807;28;20091;-71
2022/04/13 06:56:08;;;;;;;19.58;13.20;;;14.10;99.90;;;;;;5029634;28;20049;-71
2022/04/13 06:58:34;;;;;;;14.75;12.15;;;14.20;99.90;;;;;;5046192;28;20045;-71
2022/04/13 07:01:00;;;;;;;17.70;12.23;;;14.40;99.90;;;;;;5028053;28;20049;-71
2022/04/13 07:03:26;;;;;;;14.35;11.48;;;14.70;99.90;;;;;;5028866;28;20103;-70
2022/04/13 07:05:52;;;;;;;19.23;12.13;;;14.90;99.90;;;;;;5027766;28;20068;-71
2022/04/13 07:08:17;;;;;;;16.10;11.82;;;15.20;99.90;;;;;;5028888;28;20053;-71
2022/04/13 07:10:43;;;;;;;15.02;11.57;;;15.60;99.90;;;;;;5028065;28;20057;-71
2022/04/13 07:13:11;;;;;;;15.60;11.85;;;15.90;99.90;;;;;;5029825;28;20048;-72
2022/04/13 07:15:36;;;;;;;16.27;10.40;;;16.40;99.90;;;;;;5028577;28;20223;-72
2022/04/13 07:18:02;;;;;;;14.40;11.13;;;16.70;99.90;;;;;;5029618;28;20176;-70
2022/04/13 07:20:28;;;;;;;12.88;9.65;;;17.20;99.90;;;;;;5028063;28;20049;-70
2022/04/13 07:22:54;;;;;;;15.88;10.10;;;17.70;99.90;;;;;;5029628;28;20378;-69
2022/04/13 07:25:21;;;;;;;12.13;8.88;;;18.00;98.80;;;;;;5029101;28;20056;-70
2022/04/13 07:27:48;;;;;;;14.30;10.35;;;17.70;97.60;;;;;;5028747;28;20077;-69
2022/04/13 07:30:15;;;;;;;14.82;10.50;;;17.40;97.50;;;;;;5028564;28;20056;-69
2022/04/13 07:32:46;;;;;;;15.15;10.07;;;17.10;97.50;;;;;;5011819;28;20151;-69
2022/04/13 07:35:13;;;;;;;20.08;10.80;;;16.90;97.90;;;;;;5026071;28;20045;-69
2022/04/13 07:37:43;;;;;;;17.27;10.70;;;16.80;98.20;;;;;;5027486;28;20434;-69
2022/04/13 07:40:11;;;;;;;17.77;11.32;;;16.60;98.10;;;;;;5026661;28;20057;-69
2022/04/13 07:42:37;;;;;;;17.60;11.75;;;16.40;98.10;;;;;;5028399;28;20057;-69
2022/04/13 07:45:05;;;;;;;19.40;12.07;;;16.20;98.40;;;;;;5030231;28;20045;-69
2022/04/13 07:47:31;;;;;;;13.73;11.38;;;16.00;98.70;;;;;;5028448;28;20045;-69
2022/04/13 07:49:58;;;;;;;17.65;12.80;;;16.00;99.10;;;;;;5027868;28;20055;-69
2022/04/13 07:52:24;;;;;;;17.73;12.70;;;16.00;99.20;;;;;;5027099;28;20088;-69
2022/04/13 07:54:49;;;;;;;14.95;10.85;;;16.00;99.50;;;;;;5028433;28;20079;-69
2022/04/13 07:57:18;;;;;;;16.88;11.45;;;16.00;99.60;;;;;;5042645;28;20045;-69
2022/04/13 07:59:43;;;;;;;16.52;9.50;;;15.90;99.60;;;;;;5027610;28;20045;-69
2022/04/13 08:02:09;;;;;;;17.83;10.25;;;16.00;99.70;;;;;;5028420;28;20358;-69
2022/04/13 08:04:36;;;;;;;17.95;11.18;;;16.00;99.90;;;;;;5027764;28;20141;-70
2022/04/13 08:07:01;;;;;;;16.67;9.95;;;16.10;99.90;;;;;;5030149;28;20040;-69
2022/04/13 08:09:27;;;;;;;15.43;10.07;;;16.30;99.90;;;;;;5029053;28;20033;-70
2022/04/13 08:11:53;;;;;;;18.40;10.55;;;16.40;99.80;;;;;;5027969;28;20081;-70
2022/04/13 08:14:20;;;;;;;13.13;7.40;;;16.80;99.90;;;;;;5027378;28;20046;-69
2022/04/13 08:16:46;;;;;;;12.93;5.63;;;17.40;99.20;;;;;;5026835;28;20081;-70
2022/04/13 08:19:11;;;;;;;10.25;6.00;;;17.50;97.50;;;;;;5030419;28;20084;-69
2022/04/13 08:21:38;;;;;;;11.00;6.43;;;17.50;96.90;;;;;;5011849;28;20046;-69
2022/04/13 08:24:05;;;;;;;13.02;6.85;;;17.30;96.80;;;;;;5029429;28;20030;-68
2022/04/13 08:26:31;;;;;;;9.90;5.95;;;17.10;96.80;;;;;;5030293;28;20085;-68
2022/04/13 08:28:56;;;;;;;12.07;6.57;;;16.90;97.00;;;;;;5028047;28;20053;-69
2022/04/13 08:31:22;;;;;;;9.20;5.97;;;16.90;97.30;;;;;;5025510;28;20095;-69
2022/04/13 08:33:48;;;;;;;13.07;6.43;;;17.00;97.50;;;;;;5029556;28;20349;-69
2022/04/13 08:36:14;;;;;;;9.77;5.38;;;17.00;97.60;;;;;;5027699;28;20071;-69
2022/04/13 08:38:40;;;;;;;9.88;5.80;;;17.60;97.20;;;;;;5028659;28;20175;-69
2022/04/13 08:41:48;;;;;;;7.35;4.43;;;18.20;96.40;;;;;;5028306;28;20477;-70
2022/04/13 08:44:28;;;;;;;11.02;5.18;;;18.70;95.00;;;;;;5027833;28;20142;-69
2022/04/13 08:47:01;;;;;;;10.35;4.95;;;19.10;93.90;;;;;;5023334;28;20045;-69
2022/04/13 08:49:27;;;;;;;10.23;4.70;;;19.60;93.40;;;;;;5030135;28;20053;-70
2022/04/13 08:51:55;;;;;;;8.20;4.65;;;20.20;92.50;;;;;;5011816;28;20060;-70
2022/04/13 08:54:25;;;;;;;10.55;4.93;;;20.50;91.30;;;;;;5027089;28;20067;-70
2022/04/13 08:56:55;;;;;;;9.82;4.63;;;20.40;89.60;;;;;;5025487;28;20092;-70
2022/04/13 08:59:26;;;;;;;8.20;3.67;;;20.30;90.00;;;;;;5030112;28;21566;-69
2022/04/13 09:02:33;;;;;;;9.23;3.90;;;20.40;87.40;;;;;;5025521;28;20501;-69
2022/04/13 09:05:01;;;;;;;6.88;3.83;;;20.70;84.00;;;;;;5028626;28;20077;-69
2022/04/13 09:07:32;;;;;;;8.20;4.45;;;20.80;86.20;;;;;;5029621;28;20120;-69
2022/04/13 09:10:02;;;;;;;7.13;4.10;;;21.20;83.40;;;;;;5032560;28;20061;-69
2022/04/13 09:12:30;;;;;;;6.90;3.65;;;21.30;82.50;;;;;;5030882;28;20114;-69
2022/04/13 09:15:01;;;;;;;9.30;4.32;;;21.50;82.00;;;;;;5032407;28;20496;-69
2022/04/13 09:17:30;;;;;;;7.20;4.18;;;21.80;80.80;;;;;;5032573;28;20501;-69
2022/04/13 09:19:57;;;;;;;10.30;4.30;;;22.20;80.40;;;;;;5031207;28;20077;-69
2022/04/13 09:22:23;;;;;;;7.13;3.47;;;22.50;79.00;;;;;;5031505;28;20067;-70
2022/04/13 09:24:50;;;;;;;9.50;3.53;;;22.50;77.10;;;;;;5032385;28;20330;-70
2022/04/13 09:27:18;;;;;;;6.05;3.47;;;22.80;77.70;;;;;;5032499;28;20049;-70
2022/04/13 09:29:44;;;;;;;7.95;3.97;;;22.80;74.60;;;;;;5032807;28;20133;-70
2022/04/13 09:32:10;;;;;;;7.05;3.72;;;22.50;75.20;;;;;;5032248;28;20045;-70
2022/04/13 09:34:35;;;;;;;8.77;4.72;;;22.30;75.10;;;;;;5032851;28;20115;-70
2022/04/13 09:37:01;;;;;;;6.75;3.60;;;21.90;75.50;;;;;;5031640;28;20057;-70
2022/04/13 09:39:27;;;;;;;6.60;3.17;;;22.00;76.00;;;;;;5032924;28;20037;-70
2022/04/13 09:41:53;;;;;;;6.78;3.10;;;22.00;75.80;;;;;;5031010;28;20209;-70
2022/04/13 09:44:19;;;;;;;8.57;3.35;;;22.00;74.80;;;;;;5032482;28;20040;-70
2022/04/13 09:46:45;;;;;;;7.40;3.60;;;21.80;75.00;;;;;;5032009;28;20112;-70
2022/04/13 09:49:16;;;;;;;8.40;3.75;;;21.70;74.70;;;;;;5032198;28;20042;-70
2022/04/13 09:51:50;;;;;;;7.18;3.40;;;21.80;75.80;;;;;;5032422;28;20496;-70
2022/04/13 09:54:16;;;;;;;6.65;3.58;;;22.00;75.50;;;;;;5030321;28;20594;-70
2022/04/13 09:56:47;;;;;;;6.68;4.45;;;22.40;73.90;;;;;;5031272;28;20049;-70
2022/04/13 09:59:26;;;;;;;6.88;4.07;;;22.60;72.10;;;;;;5032140;28;20044;-70
2022/04/13 10:01:52;;;;;;;6.47;3.85;;;22.90;72.90;;;;;;5030778;28;20191;-70
2022/04/13 10:04:28;;;;;;;7.35;3.70;;;23.30;72.10;;;;;;5031571;28;20621;-70
2022/04/13 10:06:54;;;;;;;6.00;3.38;;;23.50;70.30;;;;;;5027280;28;20053;-70
2022/04/13 10:09:22;;;;;;;6.32;3.60;;;23.70;70.10;;;;;;5027998;28;20124;-70
2022/04/13 10:12:03;;;;;;;9.90;3.85;;;24.00;68.80;;;;;;5032379;28;20108;-70
2022/04/13 10:14:29;;;;;;;7.07;3.38;;;24.20;69.10;;;;;;5032300;28;20038;-70
2022/04/13 10:17:04;;;;;;;7.22;3.72;;;24.40;69.00;;;;;;5031439;28;20041;-71
2022/04/13 10:19:30;;;;;;;7.78;3.67;;;24.40;67.40;;;;;;5011594;28;20050;-71
2022/04/13 10:21:59;;;;;;;6.10;2.97;;;24.40;67.10;;;;;;5030383;28;20582;-71
2022/04/13 10:24:33;;;;;;;5.35;2.70;;;24.60;66.70;;;;;;5031031;28;20469;-70
2022/04/13 10:27:05;;;;;;;5.07;2.47;;;24.70;65.40;;;;;;5028952;28;20711;-70
2022/04/13 10:29:35;;;;;;;6.43;2.78;;;24.90;64.80;;;;;;5031524;28;20060;-70
2022/04/13 10:32:02;;;;;;;6.25;2.70;;;25.10;64.60;;;;;;5029467;28;20136;-70
2022/04/13 10:34:52;;;;;;;5.97;2.58;;;25.10;61.70;;;;;;5031755;28;20139;-70
2022/04/13 10:37:20;;;;;;;6.40;2.80;;;25.30;62.10;;;;;;5024437;28;20049;-70
2022/04/13 10:39:46;;;;;;;6.63;2.53;;;25.20;62.00;;;;;;5030448;28;20428;-70
2022/04/13 10:42:15;;;;;;;3.60;1.55;;;25.20;61.40;;;;;;5030806;28;20163;-70
2022/04/13 10:44:52;;;;;;;3.33;1.33;;;25.20;60.00;;;;;;5030414;28;20523;-70
2022/04/13 10:47:24;;;;;;;4.32;1.48;;;24.70;58.40;;;;;;5027634;28;21000;-70
2022/04/13 10:49:57;;;;;;;3.65;1.67;;;24.20;59.90;;;;;;5031161;28;20037;-69
2022/04/13 10:52:27;;;;;;;;;;;24.20;60.30;;;;;;5030987;28;20159;-69
2022/04/13 10:55:07;;;;;;;2.85;1.10;;;23.90;60.00;;;;;;5031535;28;20007;-70
2022/04/13 10:57:52;;;;;;;3.33;1.55;;;23.70;60.20;;;;;;5031699;28;20042;-70
2022/04/13 11:00:20;;;;;;;3.67;1.10;;;23.70;60.30;;;;;;5031356;28;20051;-70
2022/04/13 11:03:06;;;;;;;3.20;0.93;;;23.80;59.70;;;;;;5028535;28;20556;-69
2022/04/13 11:05:33;;;;;;;3.60;0.90;;;23.70;57.50;;;;;;5027082;28;20067;-69
2022/04/13 11:08:12;;;;;;;3.20;0.80;;;23.30;58.40;;;;;;5032238;28;20076;-69
2022/04/13 11:10:38;;;;;;;3.42;1.30;;;23.00;58.50;;;;;;5027419;28;20224;-69
2022/04/13 11:13:04;;;;;;;3.28;1.35;;;22.50;59.50;;;;;;5032345;28;20393;-69
2022/04/13 11:15:45;;;;;;;5.18;1.63;;;22.40;61.20;;;;;;5030878;28;20132;-69
2022/04/13 11:18:20;;;;;;;3.45;1.30;;;22.40;62.20;;;;;;5011619;28;20478;-69
2022/04/13 11:21:04;;;;;;;4.80;1.20;;;22.50;61.80;;;;;;5031301;28;20095;-69
2022/04/13 11:23:50;;;;;;;4.55;1.15;;;22.30;60.50;;;;;;5031785;28;20037;-69
2022/04/13 11:26:46;;;;;;;4.57;1.70;;;22.10;62.00;;;;;;5031445;28;20485;-69
2022/04/13 11:29:21;;;;;;;5.45;1.70;;;22.00;62.00;;;;;;5030123;28;20143;-69
2022/04/13 11:32:02;;;;;;;7.75;2.13;;;21.90;62.70;;;;;;5024966;28;20045;-69
2022/04/13 11:34:44;;;;;;;6.72;2.40;;;21.80;64.50;;;;;;5028503;28;20053;-69
2022/04/13 11:37:16;;;;;;;5.20;1.83;;;21.60;65.10;;;;;;5028523;28;20098;-68
2022/04/13 11:39:49;;;;;;;6.65;2.10;;;21.40;65.80;;;;;;5028476;28;20068;-69
2022/04/13 11:42:26;;;;;;;7.45;1.70;;;21.10;66.50;;;;;;5029385;28;20128;-69
2022/04/13 11:45:00;;;;;;;3.97;1.63;;;20.80;67.00;;;;;;5029551;28;20412;-69
2022/04/13 11:47:36;;;;;;;8.32;2.33;;;20.50;66.70;;;;;;5025393;28;20133;-69
2022/04/13 11:50:24;;;;;;;6.15;3.30;;;20.20;69.20;;;;;;5011799;28;20052;-69
2022/04/13 11:52:55;;;;;;;7.60;3.38;;;20.10;70.90;;;;;;5028980;28;20099;-69
2022/04/13 11:55:30;;;;;;;8.80;3.58;;;20.00;71.40;;;;;;5028316;28;20156;-68
2022/04/13 11:58:06;;;;;;;6.65;2.97;;;20.00;72.40;;;;;;5026199;28;20053;-68
2022/04/13 12:00:44;;;;;;;4.30;1.40;;;20.10;73.10;;;;;;5028194;28;20480;-68
2022/04/13 12:03:18;;;;;;;7.20;1.40;;;20.10;71.60;;;;;;5022014;28;20056;-68
2022/04/13 12:05:49;;;;;;;4.90;2.03;;;20.10;70.70;;;;;;5026115;28;20047;-69
2022/04/13 12:08:16;;;;;;;5.68;1.77;;;20.20;69.60;;;;;;5026986;28;20537;-69
2022/04/13 12:10:47;;;;;;;8.95;2.80;;;20.10;70.00;;;;;;5028784;28;20099;-69
2022/04/13 12:13:13;;;;;;;9.40;2.72;;;20.10;70.20;;;;;;5029874;28;20045;-69
2022/04/13 12:15:51;;;;;;;8.43;3.45;;;19.90;70.20;;;;;;5027759;28;20051;-69
2022/04/13 12:18:18;;;;;;;6.95;3.10;;;19.70;69.90;;;;;;5027889;28;20520;-69
2022/04/13 12:20:44;;;;;;;11.32;3.90;;;19.50;71.20;;;;;;5028768;28;20378;-71
2022/04/13 12:23:18;;;;;;;11.07;4.47;;;19.20;72.20;;;;;;5027896;28;20056;-71
2022/04/13 12:25:45;;;;;;;9.70;3.97;;;19.10;73.70;;;;;;5027514;28;20065;-71
2022/04/13 12:28:11;;;;;;;8.95;4.38;;;18.90;74.60;;;;;;5028490;28;20052;-71
2022/04/13 12:30:38;;;;;;;7.82;3.22;;;18.90;75.50;;;;;;5027250;28;20069;-71
2022/04/13 12:33:23;;;;;;;8.00;2.53;;;18.80;75.90;;;;;;5028500;28;20124;-71
2022/04/13 12:35:54;;;;;;;6.88;2.30;;;18.70;75.30;;;;;;5043246;28;20057;-71
2022/04/13 12:38:28;;;;;;;8.43;1.85;;;18.60;75.00;;;;;;5013479;28;20547;-71
2022/04/13 12:41:21;;;;;;;6.05;1.48;;;18.50;75.30;;;;;;5012033;28;20061;-71